Time;durP1;ratioP1;P1;durP2;ratioP2;P2;SDS_P1;SDS_P2;PMS_P1;PMS_P2;Temp;Humidity;BMP_temperature;BMP_pressure;BME280_temperature;BME280_humidity;BME280_pressure;Samples;Min_cycle;Max_cycle;Signal;HPM_P1;HPM_P2
2023/06/07 00:03:11;;;;;;;2.40;1.45;;;;;;;15.17;46.02;100121.56;10513675;28;20097;-58
2023/06/07 00:08:13;;;;;;;3.25;1.58;;;;;;;15.18;46.07;100126.75;10514115;28;20790;-58
2023/06/07 00:13:15;;;;;;;2.67;1.70;;;;;;;15.17;46.01;100122.41;10512440;28;20507;-59
2023/06/07 00:18:19;;;;;;;4.63;1.60;;;;;;;15.22;46.35;100129.97;10511477;28;20517;-58
2023/06/07 00:23:21;;;;;;;2.72;1.60;;;;;;;15.26;46.07;100119.09;10512955;28;20042;-58
2023/06/07 00:28:23;;;;;;;3.85;1.60;;;;;;;15.28;46.33;100118.97;10512054;28;20419;-59
2023/06/07 00:33:26;;;;;;;2.35;1.52;;;;;;;15.36;46.12;100117.44;10511531;28;20484;-59
2023/06/07 00:38:28;;;;;;;2.67;1.60;;;;;;;15.58;45.67;100114.00;10509690;28;20142;-58
2023/06/07 00:43:30;;;;;;;3.70;1.70;;;;;;;15.53;45.87;100105.59;10511929;28;20033;-59
2023/06/07 00:48:32;;;;;;;2.00;1.40;;;;;;;15.40;46.35;100108.34;10512426;28;20044;-59
2023/06/07 00:53:36;;;;;;;3.78;1.65;;;;;;;15.48;46.30;100109.53;10510095;28;21154;-58
2023/06/07 00:58:39;;;;;;;2.92;1.70;;;;;;;15.48;46.22;100109.53;10506180;28;20231;-58
2023/06/07 01:03:41;;;;;;;2.92;1.50;;;;;;;15.54;45.88;100112.56;10509390;28;20058;-58
2023/06/07 01:08:43;;;;;;;4.13;1.60;;;;;;;15.60;46.06;100109.47;10510785;28;20487;-59
2023/06/07 01:13:45;;;;;;;2.80;1.42;;;;;;;15.62;46.11;100106.69;10510791;28;20063;-58
2023/06/07 01:18:47;;;;;;;3.00;1.58;;;;;;;15.60;45.97;100104.19;10508897;28;20054;-61
2023/06/07 01:23:49;;;;;;;3.15;1.65;;;;;;;15.52;46.47;100101.31;10510021;28;20040;-58
2023/06/07 01:28:52;;;;;;;3.08;1.70;;;;;;;15.39;46.77;100098.75;10507806;28;20131;-58
2023/06/07 01:33:54;;;;;;;2.13;1.40;;;;;;;15.33;46.81;100096.59;10496324;28;20048;-59
2023/06/07 01:38:59;;;;;;;2.28;1.50;;;;;;;15.46;46.93;100085.94;10505131;28;20043;-58
2023/06/07 01:44:01;;;;;;;3.42;1.60;;;;;;;15.39;46.88;100085.56;10506351;28;20555;-58
2023/06/07 01:49:03;;;;;;;2.90;1.60;;;;;;;15.36;47.25;100087.59;10503563;28;20051;-58
2023/06/07 01:54:06;;;;;;;3.05;1.70;;;;;;;15.36;47.38;100077.91;10508932;28;20044;-58
2023/06/07 01:59:14;;;;;;;2.38;1.48;;;;;;;15.37;47.89;100073.47;10505578;28;20047;-58
2023/06/07 02:04:20;;;;;;;3.35;1.90;;;;;;;15.28;48.18;100071.53;10522020;28;20044;-58
2023/06/07 02:09:23;;;;;;;2.33;1.52;;;;;;;15.26;47.37;100065.56;10496347;28;20044;-58
2023/06/07 02:14:26;;;;;;;2.22;1.30;;;;;;;15.37;47.15;100065.56;10513052;28;20036;-58
2023/06/07 02:19:28;;;;;;;2.38;1.58;;;;;;;15.51;47.06;100062.72;10512788;28;20044;-58
2023/06/07 02:24:30;;;;;;;2.20;1.45;;;;;;;15.57;47.25;100054.31;10512866;28;20048;-58
2023/06/07 02:29:32;;;;;;;2.33;1.38;;;;;;;15.58;47.02;100056.03;10512844;28;20040;-59
2023/06/07 02:34:34;;;;;;;2.67;1.55;;;;;;;15.42;47.44;100063.41;10515062;28;20059;-58
2023/06/07 02:39:35;;;;;;;3.00;1.80;;;;;;;15.02;48.01;100067.44;10520757;28;20058;-58
2023/06/07 02:44:37;;;;;;;2.88;1.70;;;;;;;15.06;48.07;100066.25;10524176;28;20052;-60
2023/06/07 02:49:39;;;;;;;2.95;1.70;;;;;;;15.26;48.10;100058.50;10524605;28;20416;-57
2023/06/07 02:54:42;;;;;;;2.85;1.70;;;;;;;15.45;47.59;100060.53;10506000;28;20048;-58
2023/06/07 02:59:44;;;;;;;3.78;1.70;;;;;;;15.55;47.44;100063.34;10513042;28;20044;-59
2023/06/07 03:04:53;;;;;;;3.80;1.67;;;;;;;15.48;47.54;100068.22;10514923;28;20048;-58
2023/06/07 03:09:55;;;;;;;3.83;1.77;;;;;;;15.39;47.91;100075.03;10511658;28;20052;-58
2023/06/07 03:14:57;;;;;;;2.45;1.63;;;;;;;15.51;48.14;100072.44;10515067;28;20044;-59
2023/06/07 03:20:00;;;;;;;2.92;1.70;;;;;;;15.63;47.96;100066.22;10529793;28;20047;-59
2023/06/07 03:25:06;;;;;;;2.65;1.60;;;;;;;15.40;48.22;100074.09;10511259;28;20158;-59
2023/06/07 03:30:10;;;;;;;4.35;1.60;;;;;;;15.46;48.31;100072.75;10511498;28;20044;-59
2023/06/07 03:35:16;;;;;;;2.50;1.40;;;;;;;15.39;49.09;100064.47;10494869;28;20143;-59
2023/06/07 03:40:19;;;;;;;3.35;1.60;;;;;;;15.17;49.04;100063.63;10493506;28;20064;-58
2023/06/07 03:45:21;;;;;;;3.10;1.60;;;;;;;15.28;50.23;100063.66;10513161;28;20390;-59
2023/06/07 03:50:26;;;;;;;3.17;1.70;;;;;;;15.31;50.31;100072.16;10507206;28;20044;-60
2023/06/07 03:55:29;;;;;;;2.30;1.45;;;;;;;15.36;50.74;100071.78;10512749;28;20052;-58
2023/06/07 04:00:32;;;;;;;3.03;1.80;;;;;;;15.36;50.70;100071.78;10507664;28;20048;-58
2023/06/07 04:05:38;;;;;;;3.03;1.65;;;;;;;15.40;50.88;100078.50;10507944;28;20990;-58
2023/06/07 04:10:41;;;;;;;3.42;1.90;;;;;;;15.48;50.83;100078.75;10512007;28;20055;-60
2023/06/07 04:15:44;;;;;;;2.80;1.80;;;;;;;15.56;51.01;100071.13;10511883;28;20512;-60
2023/06/07 04:20:47;;;;;;;2.92;1.85;;;;;;;15.29;51.04;100078.47;10508731;28;20465;-61
2023/06/07 04:25:54;;;;;;;2.63;1.67;;;;;;;15.53;51.21;100081.06;10493500;28;20052;-60
2023/06/07 04:30:57;;;;;;;2.63;1.55;;;;;;;15.54;51.59;100088.00;10494459;28;20050;-58
2023/06/07 04:35:59;;;;;;;3.22;1.80;;;;;;;15.72;50.80;100076.03;10510388;28;20047;-60
2023/06/07 04:41:06;;;;;;;3.15;1.70;;;;;;;15.75;51.09;100081.91;10510341;28;20044;-60
2023/06/07 04:46:20;;;;;;;2.33;1.60;;;;;;;15.75;50.45;100070.53;10503964;28;20051;-60
2023/06/07 04:51:25;;;;;;;3.50;2.03;;;;;;;15.71;50.39;100069.94;10508762;28;20059;-60
2023/06/07 04:56:27;;;;;;;2.40;1.50;;;;;;;15.83;50.16;100073.38;10506501;28;20048;-60
2023/06/07 05:01:33;;;;;;;2.17;1.48;;;;;;;15.87;49.68;100073.03;10491969;28;20143;-60
2023/06/07 05:06:37;;;;;;;2.05;1.45;;;;;;;16.11;49.40;100078.13;10508070;28;20529;-60
2023/06/07 05:11:41;;;;;;;3.78;1.80;;;;;;;16.39;49.23;100079.38;10509626;28;20048;-60
2023/06/07 05:16:44;;;;;;;3.78;1.60;;;;;;;16.48;49.17;100076.03;10509300;28;20055;-60
2023/06/07 05:21:52;;;;;;;2.33;1.55;;;;;;;17.15;48.33;100073.91;10509365;28;20044;-60
2023/06/07 05:26:55;;;;;;;2.25;1.55;;;;;;;17.60;47.58;100075.28;10504149;28;20862;-60
2023/06/07 05:31:57;;;;;;;2.88;1.48;;;;;;;17.82;46.73;100080.41;10504778;28;20054;-60
2023/06/07 05:37:00;;;;;;;2.75;1.58;;;;;;;18.06;46.33;100080.03;10504528;28;20128;-60
2023/06/07 05:42:03;;;;;;;2.88;1.55;;;;;;;18.29;45.67;100076.22;10507391;28;20047;-60
2023/06/07 05:47:06;;;;;;;2.42;1.52;;;;;;;18.49;45.54;100083.22;10501155;28;20044;-60
2023/06/07 05:52:09;;;;;;;4.25;1.80;;;;;;;18.78;45.26;100078.78;10503737;28;20401;-60
2023/06/07 05:57:11;;;;;;;3.10;1.80;;;;;;;18.88;45.36;100076.94;10505782;28;20463;-60
2023/06/07 06:02:15;;;;;;;2.42;1.60;;;;;;;18.86;44.90;100078.06;10504129;28;20155;-60
2023/06/07 06:07:17;;;;;;;2.90;1.70;;;;;;;19.14;44.88;100075.41;10502182;28;20044;-58
2023/06/07 06:12:19;;;;;;;2.85;1.65;;;;;;;19.65;43.91;100074.97;10502132;28;20051;-60
2023/06/07 06:17:22;;;;;;;2.80;1.58;;;;;;;19.92;43.36;100074.19;10506530;28;20052;-59
2023/06/07 06:22:24;;;;;;;3.72;1.67;;;;;;;20.02;43.09;100061.69;10504813;28;20398;-60
2023/06/07 06:27:25;;;;;;;4.43;1.70;;;;;;;20.04;43.13;100070.34;10506578;28;20047;-60
2023/06/07 06:32:27;;;;;;;2.90;1.73;;;;;;;20.34;42.76;100074.53;10504133;28;20040;-60
2023/06/07 06:37:29;;;;;;;2.53;1.70;;;;;;;20.62;41.96;100076.16;10504665;28;20057;-60
2023/06/07 06:42:31;;;;;;;2.42;1.58;;;;;;;20.79;41.86;100069.97;10506755;28;20044;-60
2023/06/07 06:48:02;;;;;;;2.50;1.52;;;;;;;20.95;41.70;100078.94;10504429;28;20055;-59
2023/06/07 06:53:04;;;;;;;3.97;1.90;;;;;;;20.84;42.04;100081.00;10499219;28;20082;-59
2023/06/07 06:58:06;;;;;;;3.17;1.70;;;;;;;20.65;42.35;100079.34;10503289;28;20055;-59
2023/06/07 07:03:08;;;;;;;2.67;1.60;;;;;;;20.78;42.58;100074.47;10519054;28;20109;-59
2023/06/07 07:08:13;;;;;;;3.45;1.77;;;;;;;21.16;41.77;100072.44;10505219;28;20044;-59
2023/06/07 07:13:15;;;;;;;3.35;1.80;;;;;;;21.48;40.38;100070.84;10505277;28;20438;-59
2023/06/07 07:18:17;;;;;;;2.92;1.60;;;;;;;21.88;40.01;100072.88;10505224;28;20369;-60
2023/06/07 07:23:19;;;;;;;2.28;1.58;;;;;;;22.62;39.08;100076.44;10504189;28;20044;-59
2023/06/07 07:28:21;;;;;;;2.35;1.60;;;;;;;24.24;37.26;100069.81;10512246;28;20514;-58
2023/06/07 07:33:23;;;;;;;2.80;1.50;;;;;;;24.98;36.73;100073.66;10513404;28;20052;-58
2023/06/07 07:38:25;;;;;;;3.17;1.70;;;;;;;25.19;35.48;100070.28;10509798;28;20056;-58
2023/06/07 07:43:26;;;;;;;3.10;1.92;;;;;;;24.85;35.85;100070.75;10511807;28;20044;-58
2023/06/07 07:48:33;;;;;;;3.65;2.10;;;;;;;25.98;34.34;100067.78;10510804;28;20660;-59
2023/06/07 07:53:35;;;;;;;5.43;1.80;;;;;;;25.06;35.05;100070.94;10512745;28;20059;-58
2023/06/07 07:58:37;;;;;;;3.72;2.10;;;;;;;25.48;34.64;100071.19;10510740;28;20043;-58
2023/06/07 08:03:39;;;;;;;2.58;1.73;;;;;;;26.62;33.67;100068.75;10512501;28;20052;-58
2023/06/07 08:08:41;;;;;;;3.20;1.92;;;;;;;28.08;32.17;100057.81;10508938;28;20047;-58
2023/06/07 08:13:43;;;;;;;4.47;2.03;;;;;;;28.53;31.29;100050.94;10508509;28;20055;-58
2023/06/07 08:18:49;;;;;;;2.70;1.77;;;;;;;28.83;30.82;100052.22;10536156;27;20708;-58
2023/06/07 08:23:55;;;;;;;4.22;2.22;;;;;;;29.57;28.66;100041.22;10508763;28;20075;-59
2023/06/07 08:28:57;;;;;;;3.70;2.03;;;;;;;28.66;30.06;100044.75;10502702;28;20052;-59
2023/06/07 08:33:59;;;;;;;3.78;2.13;;;;;;;27.34;31.26;100047.91;10507275;28;20484;-59
2023/06/07 08:39:01;;;;;;;3.33;1.90;;;;;;;26.80;31.83;100050.34;10505438;28;20047;-58
2023/06/07 08:44:03;;;;;;;4.05;2.20;;;;;;;26.98;31.73;100039.13;10505882;28;20047;-59
2023/06/07 08:49:05;;;;;;;2.65;1.77;;;;;;;26.50;31.96;100051.47;10505458;28;20044;-59
2023/06/07 08:54:10;;;;;;;4.32;1.98;;;;;;;26.06;33.07;100048.91;10503937;28;20208;-59
2023/06/07 08:59:12;;;;;;;3.53;2.03;;;;;;;27.30;31.86;100036.72;10504665;28;20468;-59
2023/06/07 09:04:17;;;;;;;6.30;1.85;;;;;;;27.55;31.70;100041.59;10505520;28;20192;-58
2023/06/07 09:09:19;;;;;;;3.67;2.10;;;;;;;26.40;32.79;100050.94;10505641;28;20058;-59
2023/06/07 09:14:21;;;;;;;4.85;2.20;;;;;;;25.62;33.47;100058.81;10505823;28;20051;-60
2023/06/07 09:19:38;;;;;;;4.35;2.00;;;;;;;26.21;33.19;100046.19;10504338;28;20492;-59
2023/06/07 09:24:40;;;;;;;6.00;2.17;;;;;;;28.05;31.20;100035.88;10505860;28;20079;-59
2023/06/07 09:29:43;;;;;;;4.82;2.08;;;;;;;27.02;31.78;100041.22;10502533;28;20055;-59
2023/06/07 09:34:45;;;;;;;3.67;2.10;;;;;;;26.88;32.56;100042.16;10507995;28;20705;-59
2023/06/07 09:39:52;;;;;;;2.83;1.90;;;;;;;27.44;31.70;100043.81;10503399;28;20065;-58
2023/06/07 09:45:09;;;;;;;4.10;2.22;;;;;;;26.89;31.17;100037.63;10505915;28;20079;-59
2023/06/07 09:50:14;;;;;;;3.80;2.20;;;;;;;26.14;32.21;100039.94;10504283;28;20066;-59
2023/06/07 09:55:28;;;;;;;2.78;1.77;;;;;;;26.24;32.25;100045.81;10509037;28;20200;-59
2023/06/07 10:00:41;;;;;;;3.00;2.05;;;;;;;26.53;32.20;100033.13;10504248;28;20066;-59
2023/06/07 10:05:43;;;;;;;3.42;2.03;;;;;;;27.13;32.16;100026.44;10503702;28;20389;-59
2023/06/07 10:10:48;;;;;;;4.95;2.20;;;;;;;26.54;31.98;100037.47;10496353;28;20073;-59
2023/06/07 10:15:51;;;;;;;4.35;2.28;;;;;;;26.38;32.21;100020.81;10504411;28;20047;-59
2023/06/07 10:20:57;;;;;;;3.63;2.17;;;;;;;26.31;32.50;100027.94;10504492;28;20058;-59
2023/06/07 10:26:04;;;;;;;3.05;1.95;;;;;;;26.08;32.84;100022.75;10501589;28;20209;-59
2023/06/07 10:31:11;;;;;;;3.72;2.30;;;;;;;25.28;33.65;100016.50;10500451;28;20040;-59
2023/06/07 10:36:13;;;;;;;3.63;2.10;;;;;;;26.24;32.51;100014.47;10498936;28;20131;-59
2023/06/07 10:41:16;;;;;;;4.60;2.25;;;;;;;26.93;31.91;100001.31;10496422;28;20488;-60
2023/06/07 10:46:24;;;;;;;6.07;2.15;;;;;;;27.93;31.03;99994.50;10491553;28;20935;-60
2023/06/07 10:51:41;;;;;;;3.50;2.10;;;;;;;27.49;31.31;99995.72;10501261;28;20051;-60
2023/06/07 10:56:51;;;;;;;3.30;2.20;;;;;;;26.78;32.30;100005.94;10503702;28;20047;-60
2023/06/07 11:02:13;;;;;;;3.55;2.00;;;;;;;26.02;33.33;100014.66;10508604;28;20040;-60
2023/06/07 11:07:22;;;;;;;3.72;2.20;;;;;;;25.58;33.80;100002.13;10513824;28;20066;-60
2023/06/07 11:12:46;;;;;;;4.65;2.30;;;;;;;25.85;34.18;100004.09;10501757;28;20044;-60
2023/06/07 11:17:53;;;;;;;3.15;2.05;;;;;;;25.93;34.14;100011.22;10508797;28;20536;-60
2023/06/07 11:23:25;;;;;;;3.88;2.20;;;;;;;25.90;34.16;100007.03;10509093;28;20040;-60
2023/06/07 11:28:31;;;;;;;3.67;2.00;;;;;;;26.39;33.21;100001.84;10510248;28;20056;-60
2023/06/07 11:33:34;;;;;;;3.33;2.20;;;;;;;26.51;33.06;100002.97;10506694;28;20056;-60
2023/06/07 11:38:37;;;;;;;4.13;2.08;;;;;;;26.68;33.04;99992.84;10509667;28;20075;-60
2023/06/07 11:43:40;;;;;;;3.47;2.00;;;;;;;27.53;32.35;99980.00;10509337;28;20515;-60
2023/06/07 11:48:42;;;;;;;4.05;2.08;;;;;;;27.23;32.04;99990.19;10510081;28;20408;-60
2023/06/07 11:53:47;;;;;;;4.05;2.20;;;;;;;26.99;31.78;99977.22;10510260;28;20393;-60
2023/06/07 11:58:49;;;;;;;3.22;2.20;;;;;;;27.71;31.37;99966.06;10508573;28;20443;-60
2023/06/07 12:03:51;;;;;;;3.58;2.08;;;;;;;27.03;31.82;99961.53;10508536;28;20189;-59
2023/06/07 12:08:55;;;;;;;2.65;1.73;;;;;;;27.13;31.29;99965.53;10506554;28;20557;-60
2023/06/07 12:14:00;;;;;;;2.70;1.60;;;;;;;26.89;30.81;99959.78;10506018;28;20051;-60
2023/06/07 12:19:05;;;;;;;3.13;1.80;;;;;;;26.71;30.95;99962.13;10500837;28;20613;-60
2023/06/07 12:24:07;;;;;;;3.42;2.08;;;;;;;27.29;30.50;99959.03;10507915;28;20044;-60
2023/06/07 12:29:09;;;;;;;3.10;1.90;;;;;;;27.60;30.49;99947.81;10505466;28;20515;-60
2023/06/07 12:34:12;;;;;;;3.22;1.83;;;;;;;27.41;31.19;99939.47;10507663;28;20047;-60
2023/06/07 12:39:14;;;;;;;3.80;2.15;;;;;;;27.18;31.40;99949.66;10502222;28;20051;-60
2023/06/07 12:44:16;;;;;;;4.13;1.90;;;;;;;27.33;31.12;99930.75;10505052;28;20036;-59
2023/06/07 12:49:18;;;;;;;3.50;1.83;;;;;;;27.42;31.25;99930.38;10506459;28;20050;-60
2023/06/07 12:54:20;;;;;;;3.80;1.95;;;;;;;27.85;30.43;99919.41;10500880;28;20063;-60
2023/06/07 12:59:22;;;;;;;3.50;1.75;;;;;;;27.48;30.68;99913.44;10503340;28;20412;-60
2023/06/07 13:04:25;;;;;;;3.38;1.80;;;;;;;26.57;31.19;99913.72;10507144;28;20135;-59
2023/06/07 13:09:30;;;;;;;4.40;1.98;;;;;;;26.13;32.25;99923.84;10501694;28;20135;-60
2023/06/07 13:14:32;;;;;;;3.42;1.90;;;;;;;26.05;32.70;99909.72;10506660;28;20044;-60
2023/06/07 13:19:34;;;;;;;3.53;2.22;;;;;;;26.33;32.04;99900.72;10497462;28;20488;-59
2023/06/07 13:24:36;;;;;;;4.18;2.20;;;;;;;26.44;32.27;99904.72;10504133;28;20044;-59
2023/06/07 13:29:39;;;;;;;3.75;1.80;;;;;;;26.22;31.76;99898.53;10498991;28;20056;-60
2023/06/07 13:34:41;;;;;;;2.40;1.50;;;;;;;26.26;31.45;99889.06;10497541;28;20048;-59
2023/06/07 13:39:43;;;;;;;2.70;1.85;;;;;;;26.20;31.60;99889.03;10483482;28;20048;-60
2023/06/07 13:44:45;;;;;;;3.85;2.08;;;;;;;26.35;31.30;99897.81;10502149;28;20408;-59
2023/06/07 13:49:48;;;;;;;3.10;1.90;;;;;;;26.68;31.11;99886.38;10504581;28;20047;-60
2023/06/07 13:54:50;;;;;;;3.15;1.80;;;;;;;27.05;30.77;99878.94;10502635;28;20036;-60
2023/06/07 13:59:52;;;;;;;2.92;1.63;;;;;;;26.84;30.88;99879.84;10506118;28;20770;-60
2023/06/07 14:04:56;;;;;;;3.00;1.80;;;;;;;27.34;30.39;99863.41;10495977;28;20397;-60
2023/06/07 14:10:03;;;;;;;3.17;1.90;;;;;;;28.11;29.85;99862.97;10488750;28;20053;-60
2023/06/07 14:15:07;;;;;;;2.92;1.80;;;;;;;28.38;28.92;99848.50;10483134;28;20059;-60
2023/06/07 14:20:10;;;;;;;3.72;2.20;;;;;;;28.05;29.82;99843.13;10483489;28;20462;-60
2023/06/07 14:25:13;;;;;;;3.28;2.20;;;;;;;27.06;31.10;99849.19;10492034;28;20087;-60
2023/06/07 14:30:16;;;;;;;3.13;2.05;;;;;;;26.11;32.04;99863.38;10486216;28;20047;-60
2023/06/07 14:35:18;;;;;;;3.03;1.90;;;;;;;25.86;33.75;99860.22;10481590;28;20397;-60
2023/06/07 14:40:21;;;;;;;3.60;1.90;;;;;;;25.61;34.56;99857.09;10501000;28;20044;-60
2023/06/07 14:45:24;;;;;;;4.95;2.30;;;;;;;25.84;34.26;99855.06;10499973;28;20044;-60
2023/06/07 14:50:26;;;;;;;2.88;1.90;;;;;;;25.63;34.34;99864.97;10498604;28;20036;-60
2023/06/07 14:55:28;;;;;;;3.25;2.10;;;;;;;25.98;34.08;99856.03;10500470;28;20056;-60
2023/06/07 15:00:33;;;;;;;3.17;1.92;;;;;;;26.14;34.07;99857.66;10499128;28;20047;-60
2023/06/07 15:05:35;;;;;;;3.08;1.88;;;;;;;25.85;34.46;99856.72;10498391;28;20256;-60
2023/06/07 15:10:37;;;;;;;3.88;2.33;;;;;;;25.49;35.43;99863.97;10502257;28;20044;-60
2023/06/07 15:15:39;;;;;;;3.20;2.10;;;;;;;25.75;35.44;99852.72;10495472;28;20048;-60
2023/06/07 15:20:42;;;;;;;3.40;2.10;;;;;;;25.92;35.36;99842.59;10498770;28;20040;-60
2023/06/07 15:25:46;;;;;;;3.35;2.17;;;;;;;26.49;34.75;99846.78;10502339;28;20040;-60
2023/06/07 15:30:47;;;;;;;4.63;2.20;;;;;;;26.23;34.88;99845.75;10497794;28;20040;-60
2023/06/07 15:35:49;;;;;;;4.10;2.00;;;;;;;26.46;34.87;99854.41;10502615;28;20197;-60
2023/06/07 15:40:52;;;;;;;4.85;1.98;;;;;;;26.31;34.76;99865.22;10500124;28;20048;-60
2023/06/07 15:45:54;;;;;;;3.95;2.10;;;;;;;25.90;35.22;99848.09;10486325;28;20044;-60
2023/06/07 15:50:58;;;;;;;3.40;1.90;;;;;;;25.90;34.94;99838.22;10503584;28;20047;-60
2023/06/07 15:55:59;;;;;;;3.35;1.95;;;;;;;25.25;35.12;99840.16;10501798;28;20761;-60
2023/06/07 16:01:02;;;;;;;2.75;1.60;;;;;;;24.68;35.13;99842.69;10506884;28;20048;-60
2023/06/07 16:06:05;;;;;;;3.45;1.90;;;;;;;24.33;35.50;99848.72;10495467;28;20101;-60
2023/06/07 16:11:08;;;;;;;3.47;1.95;;;;;;;23.89;36.48;99839.72;10508894;28;20138;-60
2023/06/07 16:16:09;;;;;;;3.20;1.90;;;;;;;24.05;36.55;99845.78;10503973;28;20145;-60
2023/06/07 16:21:11;;;;;;;5.18;2.30;;;;;;;23.53;38.26;99844.00;10506333;28;20048;-60
2023/06/07 16:26:13;;;;;;;3.30;1.90;;;;;;;23.46;38.65;99846.53;10507860;28;20055;-60
2023/06/07 16:31:15;;;;;;;3.53;2.20;;;;;;;23.47;39.38;99840.22;10504078;28;20429;-60
2023/06/07 16:36:17;;;;;;;5.68;2.10;;;;;;;23.50;39.55;99837.16;10506885;28;20074;-61
2023/06/07 16:41:21;;;;;;;3.10;1.95;;;;;;;23.70;40.14;99837.53;10504483;28;20415;-60
2023/06/07 16:46:23;;;;;;;5.90;2.25;;;;;;;23.80;39.41;99833.63;10506879;28;20036;-60
2023/06/07 16:51:25;;;;;;;3.92;2.42;;;;;;;23.64;39.02;99832.91;10505599;28;20089;-60
2023/06/07 16:56:29;;;;;;;2.53;1.63;;;;;;;23.89;38.28;99829.88;10507347;28;20055;-60
2023/06/07 17:01:31;;;;;;;4.50;2.13;;;;;;;24.07;37.60;99842.94;10504027;28;20145;-60
2023/06/07 17:06:33;;;;;;;2.78;1.75;;;;;;;24.01;37.53;99847.16;10498497;28;20044;-60
2023/06/07 17:11:35;;;;;;;3.42;2.00;;;;;;;23.95;37.83;99839.00;10488143;28;20048;-60
2023/06/07 17:16:37;;;;;;;3.10;1.88;;;;;;;24.16;37.33;99837.34;10497892;28;20048;-60
2023/06/07 17:21:39;;;;;;;2.42;1.60;;;;;;;24.07;37.29;99837.59;10501943;28;20075;-60
2023/06/07 17:26:42;;;;;;;3.30;1.80;;;;;;;24.08;36.96;99842.75;10505062;28;20476;-60
2023/06/07 17:31:47;;;;;;;2.85;1.88;;;;;;;24.00;37.50;99836.66;10503847;28;20044;-60
2023/06/07 17:36:50;;;;;;;4.70;2.40;;;;;;;23.82;37.99;99839.59;10508498;28;20420;-60
2023/06/07 17:41:52;;;;;;;3.40;2.08;;;;;;;23.98;38.80;99828.78;10506543;28;20051;-59
2023/06/07 17:46:56;;;;;;;4.20;2.33;;;;;;;24.29;38.00;99826.88;10507666;28;20893;-60
2023/06/07 17:51:57;;;;;;;3.50;1.98;;;;;;;24.23;38.07;99834.78;10506806;28;20048;-60
2023/06/07 17:57:18;;;;;;;5.07;2.00;;;;;;;24.01;38.45;99839.13;10504614;28;20523;-60
2023/06/07 18:02:20;;;;;;;3.38;2.25;;;;;;;23.76;38.47;99839.50;10505831;28;20055;-59
2023/06/07 18:07:21;;;;;;;4.28;2.30;;;;;;;23.61;38.63;99841.28;10507514;28;20139;-60
2023/06/07 18:12:23;;;;;;;3.67;2.13;;;;;;;23.54;38.77;99832.31;10504484;28;20051;-60
2023/06/07 18:17:27;;;;;;;3.55;2.10;;;;;;;23.51;39.20;99836.19;10504821;28;21695;-60
2023/06/07 18:22:30;;;;;;;3.47;2.20;;;;;;;23.33;39.46;99841.75;10499996;28;20673;-60
2023/06/07 18:27:32;;;;;;;3.30;2.30;;;;;;;23.02;39.69;99848.91;10498023;28;20051;-60
2023/06/07 18:32:33;;;;;;;4.28;2.58;;;;;;;23.03;40.34;99850.56;10505867;28;20048;-60
2023/06/07 18:37:35;;;;;;;3.58;2.20;;;;;;;23.02;40.01;99850.75;10487766;28;20527;-59
2023/06/07 18:42:37;;;;;;;3.60;2.30;;;;;;;22.84;40.56;99860.81;10506305;28;20052;-60
2023/06/07 18:47:40;;;;;;;3.67;2.15;;;;;;;22.81;40.54;99858.47;10507051;28;20362;-60
2023/06/07 18:52:42;;;;;;;4.32;2.40;;;;;;;22.58;40.79;99863.66;10501786;28;20853;-60
2023/06/07 18:57:44;;;;;;;3.20;2.10;;;;;;;22.54;40.91;99870.34;10508433;28;20074;-59
2023/06/07 19:02:46;;;;;;;4.07;2.28;;;;;;;22.49;41.22;99875.34;10508856;28;20138;-60
2023/06/07 19:07:49;;;;;;;3.80;2.40;;;;;;;22.41;41.26;99873.50;10508864;28;20135;-60
2023/06/07 19:12:52;;;;;;;4.18;2.75;;;;;;;22.33;41.50;99870.06;10510319;28;20090;-69
2023/06/07 19:18:08;;;;;;;3.90;2.50;;;;;;;22.20;41.68;99861.72;10506467;28;20055;-64
2023/06/07 19:23:12;;;;;;;4.30;2.40;;;;;;;22.05;41.88;99861.56;10509799;28;20788;-64
2023/06/07 19:28:14;;;;;;;3.92;2.30;;;;;;;21.89;42.38;99872.16;10514602;28;20419;-64
2023/06/07 19:33:16;;;;;;;3.95;2.38;;;;;;;21.77;42.45;99873.47;10514303;28;20043;-64
2023/06/07 19:38:17;;;;;;;3.97;2.42;;;;;;;21.70;42.85;99867.97;10513608;28;20047;-64
2023/06/07 19:43:19;;;;;;;3.97;2.40;;;;;;;21.34;43.49;99876.38;10515311;28;20055;-64
2023/06/07 19:48:23;;;;;;;3.70;2.50;;;;;;;21.16;43.80;99870.28;10511497;28;20130;-64
2023/06/07 19:53:25;;;;;;;5.00;2.80;;;;;;;21.00;44.00;99885.19;10511760;28;20089;-63
2023/06/07 19:58:27;;;;;;;4.30;2.50;;;;;;;20.93;44.34;99886.81;10515193;28;20081;-63
2023/06/07 20:03:30;;;;;;;3.90;2.22;;;;;;;20.98;44.28;99892.50;10502803;28;20056;-64
2023/06/07 20:08:32;;;;;;;3.40;2.30;;;;;;;21.02;44.18;99890.34;10513012;28;20048;-64
2023/06/07 20:13:33;;;;;;;3.72;2.60;;;;;;;20.94;44.85;99892.97;10513315;28;20056;-63
2023/06/07 20:18:36;;;;;;;4.78;2.60;;;;;;;20.76;45.27;99898.38;10511056;28;20529;-63
2023/06/07 20:23:39;;;;;;;4.47;2.42;;;;;;;20.68;45.74;99900.94;10513022;28;20056;-63
2023/06/07 20:28:41;;;;;;;5.55;2.50;;;;;;;20.52;45.94;99892.84;10511665;28;20166;-63
2023/06/07 20:33:43;;;;;;;4.05;2.50;;;;;;;20.37;46.06;99890.91;10508204;28;20101;-64
2023/06/07 20:38:47;;;;;;;3.83;2.22;;;;;;;19.71;47.28;99888.66;10508931;28;20059;-64
2023/06/07 20:43:49;;;;;;;4.78;2.60;;;;;;;19.66;47.08;99890.09;10505279;28;20898;-64
2023/06/07 20:48:53;;;;;;;3.83;2.65;;;;;;;19.37;47.87;99893.75;10510106;28;20043;-64
2023/06/07 20:53:55;;;;;;;3.92;2.55;;;;;;;19.33;48.46;99892.41;10509896;28;20059;-64
2023/06/07 20:58:57;;;;;;;5.22;2.90;;;;;;;19.23;48.61;99904.03;10512673;28;20050;-64
2023/06/07 21:03:59;;;;;;;4.63;2.97;;;;;;;18.97;49.06;99909.09;10511118;28;20531;-64
2023/06/07 21:09:02;;;;;;;3.97;2.47;;;;;;;18.99;49.02;99901.84;10509791;28;20050;-63
2023/06/07 21:14:04;;;;;;;4.05;2.30;;;;;;;19.06;49.23;99907.44;10512001;28;20044;-64
2023/06/07 21:19:06;;;;;;;4.85;2.95;;;;;;;19.07;49.20;99919.72;10511761;28;20492;-63
2023/06/07 21:24:08;;;;;;;7.55;2.72;;;;;;;18.92;49.72;99911.38;10504996;28;20463;-64
2023/06/07 21:29:10;;;;;;;5.15;3.03;;;;;;;18.81;49.79;99913.38;10509398;28;20464;-63
2023/06/07 21:34:12;;;;;;;4.88;2.90;;;;;;;18.67;50.30;99919.13;10508594;28;20044;-64
2023/06/07 21:39:14;;;;;;;5.10;2.95;;;;;;;18.48;50.24;99923.47;10505749;28;20864;-64
2023/06/07 21:44:16;;;;;;;4.65;2.80;;;;;;;18.13;51.09;99925.00;10489321;28;20051;-63
2023/06/07 21:49:18;;;;;;;4.95;2.78;;;;;;;18.08;51.26;99921.94;10504592;28;20431;-63
2023/06/07 21:54:20;;;;;;;4.30;2.72;;;;;;;18.26;51.02;99928.25;10506426;28;20641;-64
2023/06/07 21:59:22;;;;;;;4.65;2.70;;;;;;;18.35;51.14;99927.41;10504386;28;20047;-64
2023/06/07 22:04:24;;;;;;;4.07;2.58;;;;;;;18.44;51.06;99927.38;10505305;28;20714;-63
2023/06/07 22:09:26;;;;;;;4.75;2.72;;;;;;;18.24;51.01;99925.72;10505378;28;20109;-64
2023/06/07 22:14:28;;;;;;;4.38;2.65;;;;;;;18.02;51.82;99927.78;10505409;28;20051;-64
2023/06/07 22:19:31;;;;;;;3.85;2.60;;;;;;;18.16;51.71;99922.91;10505487;28;20079;-64
2023/06/07 22:24:33;;;;;;;4.78;2.95;;;;;;;18.28;51.66;99926.31;10507216;28;20055;-63
2023/06/07 22:29:35;;;;;;;3.88;2.45;;;;;;;18.34;51.65;99931.84;10506783;28;20990;-64
2023/06/07 22:34:39;;;;;;;4.60;2.55;;;;;;;18.40;51.23;99933.94;10508471;28;20047;-63
2023/06/07 22:39:41;;;;;;;4.90;2.72;;;;;;;18.50;51.48;99926.00;10505315;28;20044;-63
2023/06/07 22:44:43;;;;;;;4.78;2.72;;;;;;;18.55;51.06;99919.28;10507773;28;20044;-63
2023/06/07 22:49:45;;;;;;;4.60;2.60;;;;;;;18.43;51.35;99928.38;10507202;28;20047;-64
2023/06/07 22:54:46;;;;;;;4.18;2.65;;;;;;;18.29;51.65;99927.97;10506394;28;21044;-63
2023/06/07 22:59:48;;;;;;;4.03;2.50;;;;;;;18.11;52.28;99927.81;10515020;28;20058;-63
2023/06/07 23:04:52;;;;;;;5.28;3.00;;;;;;;18.10;52.21;99933.22;10516127;28;20324;-64
2023/06/07 23:09:56;;;;;;;4.47;2.70;;;;;;;17.98;52.15;99929.03;10516711;28;20051;-64
2023/06/07 23:14:58;;;;;;;4.88;2.88;;;;;;;17.97;52.46;99920.28;10517556;28;20514;-63
2023/06/07 23:20:09;;;;;;;6.13;2.97;;;;;;;18.20;52.21;99931.47;10516964;28;20052;-63
2023/06/07 23:25:11;;;;;;;5.13;2.85;;;;;;;18.07;52.25;99930.88;10515013;28;20522;-63